Ashboro, Indiana
Current Conditions -  °F | °C
As of 5:53 PM on Tuesday 21 Oct 2014 (Local Time) from KHUF Reporting Station
Overcast Overcast  
Wind Chill: 57°   Ceiling: 5000
Heat Index: 57°   Visibility: 10mi
Dew Point: 39°   Wind: 9mph
Humidity: 51%   Direction: 20°NNE
Pressure: 30.14"   Gusts: NA
Location:  39.3787°N, 87.0992°W
Report Text: KHUF 212153Z 02008KT 10SM OVC050 14/04 A3014 RMK AO2 SLP207 T01390039 $
Loading
Personal Weather Stations






























Interactive Weather Map
Tropical Storm Tracking
New forecast layout! Learn more

10-Day Weather Forecast

Advertisements
Track Severe Weather on mobile